Time;durP1;ratioP1;P1;durP2;ratioP2;P2;SDS_P1;SDS_P2;PMS_P1;PMS_P2;Temp;Humidity;BMP_temperature;BMP_pressure;BME280_temperature;BME280_humidity;BME280_pressure;Samples;Min_cycle;Max_cycle;Signal;HPM_P1;HPM_P2
2021/12/12 00:00:39;;;;;;;84.20;34.20;;;5.50;99.90;;;;;;4956686;29;20098;-81
2021/12/12 00:03:31;;;;;;;105.00;38.05;;;5.30;99.90;;;;;;4956463;29;20055;-81
2021/12/12 00:05:57;;;;;;;91.00;35.83;;;5.30;99.90;;;;;;4957319;29;20054;-81
2021/12/12 00:08:24;;;;;;;74.22;34.13;;;5.40;99.90;;;;;;4940719;29;20484;-81
2021/12/12 00:11:00;;;;;;;71.30;33.53;;;5.40;99.90;;;;;;4956191;29;20043;-81
2021/12/12 00:13:32;;;;;;;87.85;33.70;;;5.30;99.90;;;;;;4956597;29;20055;-81
2021/12/12 00:15:58;;;;;;;73.75;33.53;;;5.30;99.90;;;;;;4940830;29;20090;-81
2021/12/12 00:18:23;;;;;;;85.55;34.45;;;5.30;99.90;;;;;;4957183;29;20088;-81
2021/12/12 00:20:50;;;;;;;75.00;32.45;;;5.30;99.90;;;;;;4939556;29;20498;-81
2021/12/12 00:23:17;;;;;;;81.35;33.83;;;5.40;99.90;;;;;;4955904;29;20058;-81
2021/12/12 00:25:51;;;;;;;85.40;35.03;;;5.40;99.90;;;;;;4956175;29;20047;-80
2021/12/12 00:28:19;;;;;;;82.95;34.45;;;5.40;99.90;;;;;;4956191;29;20052;-80
2021/12/12 00:30:47;;;;;;;86.72;34.80;;;5.40;99.90;;;;;;4956411;29;20090;-81
2021/12/12 00:33:14;;;;;;;102.63;39.35;;;5.50;99.90;;;;;;4956099;29;20474;-81
2021/12/12 00:35:41;;;;;;;85.63;32.72;;;5.60;99.90;;;;;;4955935;29;20051;-80
2021/12/12 00:38:16;;;;;;;104.15;38.67;;;5.60;99.90;;;;;;4955740;29;20459;-81
2021/12/12 00:40:47;;;;;;;86.72;36.22;;;5.70;99.90;;;;;;4939755;29;20054;-81
2021/12/12 00:43:22;;;;;;;91.40;37.88;;;5.70;99.90;;;;;;4955912;29;20090;-81
2021/12/12 00:45:49;;;;;;;90.68;37.08;;;5.60;99.90;;;;;;4940136;29;20051;-81
2021/12/12 00:48:15;;;;;;;73.15;33.03;;;5.50;99.90;;;;;;4955982;29;20048;-81
2021/12/12 00:50:43;;;;;;;62.13;31.13;;;5.50;99.90;;;;;;4955743;29;20121;-81
2021/12/12 00:53:11;;;;;;;77.25;33.80;;;5.60;99.90;;;;;;4924075;29;20098;-81
2021/12/12 00:55:39;;;;;;;78.90;34.88;;;5.60;99.90;;;;;;4956510;29;20056;-80
2021/12/12 00:58:11;;;;;;;86.80;34.42;;;5.70;99.90;;;;;;4955814;29;20129;-80
2021/12/12 01:00:48;;;;;;;74.95;33.38;;;5.50;99.90;;;;;;4955552;29;20047;-80
2021/12/12 01:03:14;;;;;;;88.45;36.17;;;5.50;99.90;;;;;;4939749;29;20061;-80
2021/12/12 01:05:42;;;;;;;76.43;31.48;;;5.50;99.90;;;;;;4955102;29;20090;-80
2021/12/12 01:08:10;;;;;;;80.28;32.83;;;5.40;99.90;;;;;;4955615;29;20055;-81
2021/12/12 01:10:53;;;;;;;75.75;34.63;;;5.50;99.90;;;;;;4923819;29;20063;-80
2021/12/12 01:13:20;;;;;;;74.35;32.67;;;5.40;99.90;;;;;;4955696;29;20044;-80
2021/12/12 01:15:58;;;;;;;74.97;32.15;;;5.30;99.90;;;;;;4939601;29;20138;-80
2021/12/12 01:18:29;;;;;;;69.85;31.00;;;5.40;99.90;;;;;;4955591;29;20389;-81
2021/12/12 01:20:59;;;;;;;70.97;31.90;;;5.40;99.90;;;;;;4955558;29;20055;-80
2021/12/12 01:23:31;;;;;;;74.63;32.88;;;5.50;99.90;;;;;;4954988;29;20077;-80
2021/12/12 01:25:58;;;;;;;65.38;31.00;;;5.50;99.90;;;;;;4955270;29;20122;-80
2021/12/12 01:28:28;;;;;;;79.25;34.22;;;5.60;99.90;;;;;;4955121;29;20400;-81
2021/12/12 01:30:57;;;;;;;76.70;32.63;;;5.60;99.90;;;;;;4955234;29;20047;-80
2021/12/12 01:33:34;;;;;;;86.13;34.97;;;5.60;99.90;;;;;;4954701;28;20051;-80
2021/12/12 01:36:08;;;;;;;82.35;32.50;;;5.40;99.90;;;;;;4955005;29;20090;-80
2021/12/12 01:41:23;;;;;;;75.80;31.88;;;5.50;99.90;;;;;;4954664;29;20047;-80
2021/12/12 01:43:50;;;;;;;82.03;34.03;;;5.40;99.90;;;;;;4955229;29;20080;-80
2021/12/12 01:46:24;;;;;;;82.40;34.08;;;5.50;99.90;;;;;;4955054;29;20047;-81
2021/12/12 01:48:57;;;;;;;88.05;36.53;;;5.50;99.90;;;;;;4955085;29;20043;-81
2021/12/12 01:51:24;;;;;;;78.80;33.55;;;5.60;99.90;;;;;;4938629;29;20538;-81
2021/12/12 01:53:54;;;;;;;72.97;31.80;;;5.70;99.90;;;;;;4954827;29;20091;-80
2021/12/12 01:56:26;;;;;;;88.78;35.25;;;5.60;99.90;;;;;;4938590;29;20047;-80
2021/12/12 01:58:55;;;;;;;68.05;31.65;;;5.60;99.90;;;;;;4955116;29;20054;-80
2021/12/12 02:01:30;;;;;;;74.78;31.58;;;5.50;99.90;;;;;;4954564;29;20125;-80
2021/12/12 02:04:04;;;;;;;89.05;35.72;;;5.40;99.90;;;;;;4938579;29;20435;-80
2021/12/12 02:06:31;;;;;;;79.53;33.90;;;5.50;99.90;;;;;;4954432;29;20126;-80
2021/12/12 02:08:58;;;;;;;86.82;32.58;;;5.50;99.90;;;;;;4954509;29;20082;-80
2021/12/12 02:11:28;;;;;;;79.35;33.30;;;5.50;99.90;;;;;;4954133;29;20054;-80
2021/12/12 02:13:57;;;;;;;106.00;36.97;;;5.50;99.90;;;;;;4938604;29;20057;-81
2021/12/12 02:16:25;;;;;;;82.68;32.88;;;5.50;99.90;;;;;;4954543;29;20047;-81
2021/12/12 02:18:53;;;;;;;80.05;34.45;;;5.50;99.90;;;;;;4954448;29;20047;-81
2021/12/12 02:21:30;;;;;;;80.53;33.30;;;5.40;99.90;;;;;;4938842;29;20051;-81
2021/12/12 02:37:33;;;;;;;90.72;33.53;;;5.40;99.90;;;;;;4953773;29;20501;-80
2021/12/12 02:40:00;;;;;;;109.05;36.63;;;5.50;99.90;;;;;;4954011;29;20066;-81
2021/12/12 02:42:26;;;;;;;84.38;32.03;;;5.50;99.90;;;;;;4954160;29;20048;-81
2021/12/12 02:44:57;;;;;;;85.15;33.45;;;5.60;99.90;;;;;;4955413;28;20094;-81
2021/12/12 02:47:32;;;;;;;68.45;32.30;;;5.50;99.90;;;;;;4958057;29;20050;-81
2021/12/12 02:50:09;;;;;;;83.85;31.95;;;5.50;99.90;;;;;;4942147;29;20055;-81
2021/12/12 02:52:36;;;;;;;91.22;33.22;;;5.40;99.90;;;;;;4958434;29;20047;-81
2021/12/12 02:55:31;;;;;;;74.95;31.90;;;5.60;99.90;;;;;;4957988;29;20106;-81
2021/12/12 02:57:59;;;;;;;89.80;32.42;;;5.60;99.90;;;;;;4957466;29;20135;-81
2021/12/12 03:00:31;;;;;;;76.43;31.05;;;5.60;99.90;;;;;;4957657;29;20146;-81
2021/12/12 03:02:59;;;;;;;63.33;28.02;;;5.50;99.90;;;;;;4958057;29;20444;-81
2021/12/12 03:05:28;;;;;;;72.55;28.92;;;5.40;99.90;;;;;;4957428;29;20057;-81
2021/12/12 03:07:54;;;;;;;63.95;28.52;;;5.40;99.90;;;;;;4957672;29;20053;-81
2021/12/12 03:10:25;;;;;;;67.53;30.42;;;5.50;99.90;;;;;;4957362;29;20047;-81
2021/12/12 03:12:51;;;;;;;65.15;27.60;;;5.50;99.90;;;;;;4957564;29;20043;-81
2021/12/12 03:15:29;;;;;;;78.50;31.20;;;5.60;99.90;;;;;;4957733;29;20503;-81
2021/12/12 03:17:59;;;;;;;68.60;28.48;;;5.60;99.90;;;;;;4957686;29;20391;-81
2021/12/12 03:20:31;;;;;;;81.57;28.45;;;5.60;99.90;;;;;;4941663;29;20055;-81
2021/12/12 03:23:05;;;;;;;71.45;28.60;;;5.60;99.90;;;;;;4957547;29;20043;-81
2021/12/12 03:25:35;;;;;;;55.00;25.23;;;5.60;99.90;;;;;;4957084;29;20046;-81
2021/12/12 03:28:01;;;;;;;65.88;26.83;;;5.50;99.90;;;;;;4957699;29;20069;-81
2021/12/12 03:30:28;;;;;;;61.42;24.80;;;5.70;99.90;;;;;;4941397;29;20565;-81
2021/12/12 03:32:54;;;;;;;62.20;25.40;;;5.60;99.90;;;;;;4941651;29;20046;-81
2021/12/12 03:35:20;;;;;;;56.50;26.40;;;5.60;99.90;;;;;;4941373;29;20483;-81
2021/12/12 03:37:46;;;;;;;58.72;25.15;;;5.50;99.90;;;;;;4956691;29;20488;-81
2021/12/12 03:40:27;;;;;;;56.05;24.23;;;5.60;99.90;;;;;;4956830;29;20062;-81
2021/12/12 03:42:57;;;;;;;79.85;26.98;;;5.70;99.90;;;;;;4957245;29;20054;-81
2021/12/12 03:45:23;;;;;;;68.50;26.23;;;5.70;99.90;;;;;;4956839;29;20086;-81
2021/12/12 03:48:09;;;;;;;60.97;25.63;;;5.80;99.90;;;;;;4940874;29;20512;-81
2021/12/12 03:50:37;;;;;;;55.60;23.33;;;5.90;99.90;;;;;;4957441;29;20051;-81
2021/12/12 03:53:03;;;;;;;50.15;22.45;;;5.80;99.90;;;;;;4940690;29;20491;-81
2021/12/12 03:55:29;;;;;;;62.25;25.17;;;5.90;99.90;;;;;;4956578;28;20091;-81
2021/12/12 03:57:58;;;;;;;49.42;21.17;;;5.80;99.90;;;;;;4956936;29;20047;-81
2021/12/12 04:00:35;;;;;;;59.92;23.02;;;5.90;99.90;;;;;;4956983;29;20465;-81
2021/12/12 04:03:01;;;;;;;49.30;21.95;;;5.90;99.90;;;;;;4940985;29;20046;-81
2021/12/12 04:05:27;;;;;;;50.78;22.88;;;5.90;99.90;;;;;;4940528;29;20483;-81
2021/12/12 04:07:53;;;;;;;42.67;19.13;;;6.00;99.90;;;;;;4924957;29;20055;-81
2021/12/12 04:10:20;;;;;;;47.90;22.83;;;6.00;99.90;;;;;;4940182;29;20043;-81
2021/12/12 04:12:48;;;;;;;43.88;20.20;;;6.10;99.90;;;;;;4956316;29;20047;-81
2021/12/12 04:15:15;;;;;;;46.33;20.02;;;6.00;99.90;;;;;;4940411;29;20085;-81
2021/12/12 04:17:41;;;;;;;48.03;21.48;;;6.00;99.90;;;;;;4956279;29;20055;-81
2021/12/12 04:20:19;;;;;;;46.17;21.50;;;5.90;99.90;;;;;;4940856;29;20047;-81
2021/12/12 04:22:45;;;;;;;49.88;21.55;;;6.00;99.90;;;;;;4956287;29;20530;-81
2021/12/12 04:25:11;;;;;;;42.92;20.05;;;6.00;99.90;;;;;;4956334;29;20062;-81
2021/12/12 04:27:37;;;;;;;42.03;18.90;;;6.10;99.90;;;;;;4940500;29;20056;-81
2021/12/12 04:30:05;;;;;;;47.05;20.88;;;5.90;99.90;;;;;;4939990;29;20050;-81
2021/12/12 04:32:32;;;;;;;50.85;21.33;;;6.00;99.90;;;;;;4956603;29;20054;-81
2021/12/12 04:35:10;;;;;;;39.72;18.70;;;6.00;99.90;;;;;;4940313;29;20101;-81
2021/12/12 04:37:37;;;;;;;41.03;18.27;;;6.00;99.90;;;;;;4956017;29;20062;-81
2021/12/12 04:40:04;;;;;;;39.15;19.35;;;6.00;99.90;;;;;;4955544;29;20043;-82
2021/12/12 04:42:36;;;;;;;32.95;16.70;;;6.10;99.90;;;;;;4939709;29;20138;-81
2021/12/12 04:45:17;;;;;;;34.95;17.77;;;6.00;99.90;;;;;;4949000;29;20042;-81
2021/12/12 04:50:56;;;;;;;31.92;18.02;;;6.00;99.90;;;;;;4955594;29;20054;-79
2021/12/12 04:53:25;;;;;;;35.97;16.97;;;6.10;99.90;;;;;;4955597;29;20459;-79
2021/12/12 04:56:03;;;;;;;30.13;17.08;;;6.20;99.90;;;;;;4939852;29;20051;-79
2021/12/12 04:58:40;;;;;;;38.08;18.42;;;6.20;99.90;;;;;;4955918;29;20054;-79
2021/12/12 05:01:18;;;;;;;38.28;19.38;;;6.10;99.90;;;;;;4955909;29;20415;-79
2021/12/12 05:03:59;;;;;;;39.95;17.77;;;6.00;99.90;;;;;;4955687;29;20039;-79
2021/12/12 05:06:39;;;;;;;40.00;18.67;;;6.00;99.90;;;;;;4955609;29;20091;-79
2021/12/12 05:09:14;;;;;;;36.95;18.45;;;6.10;99.90;;;;;;4955530;29;20443;-80
2021/12/12 05:12:23;;;;;;;48.70;21.10;;;6.10;99.90;;;;;;4939224;29;20062;-79
2021/12/12 05:15:09;;;;;;;43.53;21.08;;;6.10;99.90;;;;;;4954118;29;20090;-79
2021/12/12 05:17:36;;;;;;;31.45;16.63;;;6.10;99.90;;;;;;4955400;29;20476;-79
2021/12/12 05:20:13;;;;;;;30.85;16.40;;;6.10;99.90;;;;;;4955028;29;20035;-79
2021/12/12 05:22:45;;;;;;;28.60;15.95;;;6.00;99.90;;;;;;4955399;29;20475;-78
2021/12/12 05:25:18;;;;;;;37.08;17.30;;;6.00;99.90;;;;;;4955050;29;20043;-78
2021/12/12 05:27:46;;;;;;;26.70;15.20;;;6.00;99.90;;;;;;4955273;29;20083;-79
2021/12/12 05:30:31;;;;;;;22.67;12.77;;;6.10;99.90;;;;;;4955419;29;20126;-79
2021/12/12 05:32:57;;;;;;;24.35;13.75;;;6.00;99.90;;;;;;4955062;29;20047;-79
2021/12/12 05:35:27;;;;;;;30.70;15.88;;;6.00;99.90;;;;;;4955014;29;20043;-79
2021/12/12 05:37:54;;;;;;;29.55;16.13;;;6.00;99.90;;;;;;4954528;29;20055;-79
2021/12/12 05:40:29;;;;;;;26.67;14.48;;;6.20;99.90;;;;;;4954344;29;20066;-79
2021/12/12 05:43:00;;;;;;;30.83;16.45;;;6.30;99.90;;;;;;4939206;29;20043;-79
2021/12/12 05:45:28;;;;;;;26.08;14.68;;;6.30;99.90;;;;;;4954767;29;20521;-79
2021/12/12 05:47:54;;;;;;;39.58;17.73;;;6.20;99.90;;;;;;4954933;29;20074;-79
2021/12/12 05:50:21;;;;;;;37.28;18.35;;;6.30;99.90;;;;;;4954930;29;20039;-79
2021/12/12 05:52:47;;;;;;;26.70;15.13;;;6.40;99.90;;;;;;4939085;29;20150;-80
2021/12/12 05:55:33;;;;;;;30.52;17.05;;;6.40;99.90;;;;;;4954726;29;20126;-81
2021/12/12 05:58:00;;;;;;;34.88;17.35;;;6.40;99.90;;;;;;4954777;29;20055;-81
2021/12/12 06:00:31;;;;;;;27.23;15.68;;;6.40;99.90;;;;;;4939078;29;20043;-81
2021/12/12 06:02:57;;;;;;;36.92;18.52;;;6.40;99.90;;;;;;4954648;29;20058;-80
2021/12/12 06:05:23;;;;;;;29.70;16.42;;;6.50;99.90;;;;;;4938308;29;20050;-81
2021/12/12 06:07:50;;;;;;;53.95;21.48;;;6.40;99.90;;;;;;4954344;29;20110;-80
2021/12/12 06:10:17;;;;;;;44.40;20.95;;;6.50;99.90;;;;;;4922420;29;20069;-81
2021/12/12 06:12:44;;;;;;;26.83;15.63;;;6.60;99.90;;;;;;4954754;29;20043;-80
2021/12/12 06:15:14;;;;;;;28.60;15.82;;;6.50;99.90;;;;;;4938541;29;20047;-80
2021/12/12 06:17:40;;;;;;;46.00;19.88;;;6.40;99.90;;;;;;4954634;29;20047;-81
2021/12/12 06:20:08;;;;;;;49.03;20.63;;;6.50;99.90;;;;;;4954177;28;20116;-81
2021/12/12 06:22:35;;;;;;;30.15;16.08;;;6.60;99.90;;;;;;4922617;29;20058;-80
2021/12/12 06:25:00;;;;;;;37.28;16.98;;;6.70;99.90;;;;;;4954228;29;20051;-80
2021/12/12 06:27:28;;;;;;;27.55;16.48;;;6.70;99.90;;;;;;4954348;29;20047;-81
2021/12/12 06:29:55;;;;;;;31.52;16.65;;;6.70;99.90;;;;;;4938694;29;20057;-80
2021/12/12 06:32:22;;;;;;;37.78;18.60;;;6.60;99.90;;;;;;4938588;29;20471;-80
2021/12/12 06:34:49;;;;;;;23.15;15.30;;;6.70;99.90;;;;;;4954431;29;20055;-80
2021/12/12 06:37:16;;;;;;;58.85;22.42;;;6.70;99.90;;;;;;4954046;29;20063;-80
2021/12/12 06:39:44;;;;;;;67.00;22.88;;;6.70;99.90;;;;;;4954192;29;20055;-80
2021/12/12 06:42:12;;;;;;;57.60;22.02;;;6.80;99.90;;;;;;4953634;29;20087;-80
2021/12/12 06:44:40;;;;;;;72.15;23.85;;;6.70;99.90;;;;;;4954245;29;20051;-80
2021/12/12 06:47:08;;;;;;;29.15;15.98;;;6.70;99.90;;;;;;4954005;29;20039;-80
2021/12/12 06:49:35;;;;;;;47.47;20.55;;;6.70;99.90;;;;;;4954022;29;20102;-80
2021/12/12 06:52:03;;;;;;;28.80;15.85;;;6.70;99.90;;;;;;4953935;29;20045;-80
2021/12/12 06:54:30;;;;;;;33.30;17.00;;;6.80;99.90;;;;;;4953825;29;20521;-80
2021/12/12 06:56:59;;;;;;;40.22;19.00;;;6.80;99.90;;;;;;4954352;29;20085;-80
2021/12/12 06:59:28;;;;;;;39.00;18.40;;;6.80;99.90;;;;;;4954223;29;20082;-80
2021/12/12 07:01:55;;;;;;;60.42;22.08;;;6.80;99.90;;;;;;4938285;29;20135;-80
2021/12/12 07:04:21;;;;;;;38.67;18.13;;;6.80;99.90;;;;;;4953696;29;20511;-80
2021/12/12 07:06:53;;;;;;;60.08;22.15;;;6.80;99.90;;;;;;4953988;29;20055;-80
2021/12/12 07:09:19;;;;;;;54.53;21.33;;;6.80;99.90;;;;;;4953810;29;20447;-80
2021/12/12 07:11:46;;;;;;;35.35;18.73;;;7.00;99.90;;;;;;4953514;29;20395;-80
2021/12/12 07:14:14;;;;;;;48.00;21.35;;;7.00;99.90;;;;;;4938288;29;20050;-80
2021/12/12 07:16:41;;;;;;;52.25;21.50;;;7.00;99.90;;;;;;4953736;29;20054;-80
2021/12/12 07:19:07;;;;;;;33.53;18.33;;;7.00;99.90;;;;;;4953805;29;20534;-80
2021/12/12 07:21:34;;;;;;;45.33;21.08;;;7.00;99.90;;;;;;4953892;29;20063;-80
2021/12/12 07:24:02;;;;;;;48.78;21.00;;;6.90;99.90;;;;;;4953834;29;20480;-80
2021/12/12 07:26:29;;;;;;;39.70;18.48;;;6.90;99.90;;;;;;4953748;29;20495;-80
2021/12/12 07:28:56;;;;;;;89.97;26.73;;;6.90;99.90;;;;;;4938062;29;20079;-80
2021/12/12 07:31:28;;;;;;;77.28;24.92;;;7.10;99.90;;;;;;4955506;28;20083;-80
2021/12/12 07:33:57;;;;;;;77.60;26.13;;;7.10;99.90;;;;;;4957313;29;20434;-80
2021/12/12 07:36:24;;;;;;;30.95;18.15;;;7.10;99.90;;;;;;4957559;29;20053;-81
2021/12/12 07:38:56;;;;;;;101.68;28.17;;;7.00;99.90;;;;;;4956650;29;20106;-81
2021/12/12 07:41:28;;;;;;;36.90;19.08;;;7.20;99.90;;;;;;4940875;29;20142;-81
2021/12/12 07:43:54;;;;;;;46.83;21.20;;;7.20;99.90;;;;;;4957214;29;20051;-81
2021/12/12 07:46:21;;;;;;;81.50;25.73;;;7.20;99.90;;;;;;4957596;29;20055;-81
2021/12/12 07:48:49;;;;;;;41.85;20.35;;;7.20;99.90;;;;;;4957132;29;20047;-81
2021/12/12 07:51:16;;;;;;;95.53;29.42;;;7.20;99.90;;;;;;4956900;29;20568;-81
2021/12/12 07:53:42;;;;;;;85.53;26.17;;;7.30;99.90;;;;;;4941261;29;20051;-81
2021/12/12 07:56:09;;;;;;;85.97;25.52;;;7.30;99.90;;;;;;4957073;29;20054;-81
2021/12/12 07:58:36;;;;;;;92.07;25.77;;;7.30;99.90;;;;;;4956638;29;20570;-81
2021/12/12 08:01:04;;;;;;;51.78;20.75;;;7.30;99.90;;;;;;4956893;29;20124;-81
2021/12/12 08:03:33;;;;;;;74.70;24.52;;;7.30;99.90;;;;;;4956927;29;20047;-81
2021/12/12 08:06:00;;;;;;;90.13;25.02;;;7.40;99.90;;;;;;4956850;29;20066;-81
2021/12/12 08:08:28;;;;;;;59.40;22.27;;;7.50;99.90;;;;;;4956459;29;20099;-81
2021/12/12 08:10:56;;;;;;;94.05;25.60;;;7.50;99.90;;;;;;4956254;29;20101;-81
2021/12/12 08:13:22;;;;;;;35.10;18.92;;;7.60;99.90;;;;;;4940461;29;20079;-81
2021/12/12 08:15:48;;;;;;;106.50;27.52;;;7.60;99.90;;;;;;4940680;29;20121;-80
2021/12/12 08:18:16;;;;;;;73.85;25.55;;;7.60;99.90;;;;;;4956472;29;20051;-81
2021/12/12 08:20:45;;;;;;;93.88;26.98;;;7.60;99.90;;;;;;4940564;29;20059;-81
2021/12/12 08:23:12;;;;;;;91.90;27.25;;;7.60;99.90;;;;;;4956399;29;20070;-80
2021/12/12 08:25:38;;;;;;;83.72;26.05;;;7.70;99.90;;;;;;4939861;29;20058;-81
2021/12/12 08:28:05;;;;;;;102.32;27.23;;;7.70;99.90;;;;;;4956420;29;20106;-81
2021/12/12 08:30:33;;;;;;;45.25;20.38;;;7.70;99.90;;;;;;4956211;29;20051;-81
2021/12/12 08:33:00;;;;;;;80.70;24.73;;;7.80;99.90;;;;;;4940323;29;20090;-81
2021/12/12 08:35:28;;;;;;;97.03;27.77;;;7.90;99.90;;;;;;4956249;29;20050;-81
2021/12/12 08:37:56;;;;;;;74.13;24.77;;;7.90;99.90;;;;;;4939969;29;20055;-81
2021/12/12 08:40:26;;;;;;;89.97;26.15;;;7.80;99.90;;;;;;4939453;29;20491;-81
2021/12/12 08:42:53;;;;;;;91.28;25.42;;;7.90;99.90;;;;;;4938207;29;20447;-81
2021/12/12 08:45:25;;;;;;;92.68;26.20;;;7.90;99.90;;;;;;4943894;29;20043;-81
2021/12/12 08:47:54;;;;;;;93.18;25.15;;;8.00;99.90;;;;;;4936912;29;20055;-81
2021/12/12 08:50:25;;;;;;;81.32;25.73;;;8.00;99.90;;;;;;4955417;29;20134;-81
2021/12/12 08:52:52;;;;;;;92.50;27.67;;;8.10;99.90;;;;;;4939305;29;20051;-81
2021/12/12 08:55:22;;;;;;;85.80;27.73;;;8.10;99.90;;;;;;4955875;28;20403;-80
2021/12/12 08:58:00;;;;;;;80.70;26.40;;;8.00;99.90;;;;;;4939757;29;20087;-80
2021/12/12 09:00:30;;;;;;;83.35;25.92;;;8.00;99.90;;;;;;4955288;28;20086;-81
2021/12/12 09:02:57;;;;;;;118.07;29.65;;;8.00;99.90;;;;;;4955978;29;20053;-81
2021/12/12 09:05:29;;;;;;;97.80;28.33;;;8.10;99.90;;;;;;4939141;29;20478;-80
2021/12/12 09:08:02;;;;;;;103.72;28.15;;;8.10;99.90;;;;;;4955840;29;20135;-74
2021/12/12 09:10:38;;;;;;;99.32;27.77;;;8.20;99.90;;;;;;4955219;28;20108;-73
2021/12/12 09:13:13;;;;;;;98.68;27.95;;;8.20;99.90;;;;;;4955589;29;20055;-73
2021/12/12 09:16:17;;;;;;;107.57;29.23;;;8.20;99.90;;;;;;4955285;29;20055;-74
2021/12/12 09:18:53;;;;;;;112.32;27.13;;;8.20;99.90;;;;;;4962673;29;20048;-74
2021/12/12 09:21:25;;;;;;;;;;;8.20;99.90;;;;;;4955288;29;20047;-74
2021/12/12 09:24:10;;;;;;;102.93;28.23;;;8.30;99.90;;;;;;4955302;29;20010;-74
2021/12/12 09:26:41;;;;;;;160.63;33.53;;;8.20;99.90;;;;;;4954676;29;20062;-74
2021/12/12 09:29:15;;;;;;;166.27;34.40;;;8.30;99.90;;;;;;4955327;29;20498;-73
2021/12/12 09:31:52;;;;;;;171.90;34.88;;;8.40;99.90;;;;;;4955095;29;20578;-73
2021/12/12 09:34:26;;;;;;;193.68;37.55;;;8.40;99.90;;;;;;4955143;29;20478;-75
2021/12/12 09:36:56;;;;;;;183.63;37.42;;;8.40;99.90;;;;;;4939061;29;20455;-73
2021/12/12 09:39:32;;;;;;;131.20;33.42;;;8.40;99.90;;;;;;4953857;29;20055;-74
2021/12/12 09:42:35;;;;;;;207.27;39.15;;;8.40;99.90;;;;;;4919889;29;20492;-74
2021/12/12 09:45:22;;;;;;;161.60;34.95;;;8.40;99.90;;;;;;4931126;29;20099;-74
2021/12/12 09:51:16;;;;;;;223.10;39.33;;;8.50;99.90;;;;;;4943726;29;20491;-75
2021/12/12 09:53:44;;;;;;;218.52;37.70;;;8.50;99.90;;;;;;4934814;29;20487;-75
2021/12/12 09:56:32;;;;;;;185.48;36.63;;;8.50;99.90;;;;;;4945288;29;20051;-73
2021/12/12 09:59:32;;;;;;;236.60;42.60;;;8.50;99.90;;;;;;4954930;29;20059;-73
2021/12/12 10:02:07;;;;;;;266.45;40.40;;;8.60;99.90;;;;;;4954496;29;20058;-73
2021/12/12 10:05:12;;;;;;;299.00;44.50;;;8.60;99.90;;;;;;4938306;29;20039;-72
2021/12/12 10:07:55;;;;;;;255.88;42.90;;;8.70;99.90;;;;;;4950136;29;20522;-73
2021/12/12 10:10:32;;;;;;;335.08;49.65;;;8.80;99.90;;;;;;4935502;29;20047;-74
2021/12/12 10:13:10;;;;;;;219.57;42.35;;;8.80;99.90;;;;;;4919350;29;20127;-72
2021/12/12 10:15:45;;;;;;;273.20;45.63;;;8.70;99.90;;;;;;4936005;29;20051;-72
2021/12/12 10:18:24;;;;;;;263.35;46.08;;;8.80;99.90;;;;;;4936023;29;20090;-72
2021/12/12 10:21:01;;;;;;;273.70;45.15;;;8.80;99.90;;;;;;4934976;29;20554;-72
2021/12/12 10:23:36;;;;;;;286.00;48.15;;;8.80;99.90;;;;;;4936041;29;20091;-72
2021/12/12 10:26:11;;;;;;;195.85;42.05;;;8.80;99.90;;;;;;4951480;29;20055;-74
2021/12/12 10:28:50;;;;;;;129.18;36.78;;;8.80;99.90;;;;;;4955588;29;20082;-73
2021/12/12 10:31:42;;;;;;;281.30;46.63;;;8.80;99.90;;;;;;4954171;29;20095;-75
2021/12/12 10:34:33;;;;;;;240.63;43.88;;;8.90;99.90;;;;;;4938130;29;20093;-75
2021/12/12 10:37:10;;;;;;;255.82;47.45;;;9.00;99.90;;;;;;4937931;29;20131;-74
2021/12/12 10:39:41;;;;;;;293.80;46.20;;;9.10;99.90;;;;;;4954201;29;20097;-74
2021/12/12 10:42:20;;;;;;;196.77;42.80;;;9.00;99.90;;;;;;4953436;29;20051;-74
2021/12/12 10:44:48;;;;;;;277.17;47.92;;;9.00;99.90;;;;;;4950437;29;20051;-74
2021/12/12 10:47:32;;;;;;;272.45;46.47;;;9.10;99.90;;;;;;4953684;29;20505;-74
2021/12/12 10:50:18;;;;;;;307.65;51.10;;;9.20;99.90;;;;;;4953947;29;20049;-74
2021/12/12 10:52:58;;;;;;;296.05;50.03;;;9.20;99.90;;;;;;4953867;29;20134;-74
2021/12/12 10:55:47;;;;;;;241.02;48.55;;;9.20;99.90;;;;;;4938259;29;20082;-74
2021/12/12 10:58:19;;;;;;;329.02;53.15;;;9.20;99.90;;;;;;4937812;29;20130;-74
2021/12/12 11:00:49;;;;;;;329.95;51.58;;;9.30;99.90;;;;;;4954020;29;20047;-74
2021/12/12 11:03:18;;;;;;;315.80;53.25;;;9.30;99.90;;;;;;4953701;29;20058;-70
2021/12/12 11:06:04;;;;;;;254.07;46.03;;;9.40;99.90;;;;;;4940259;29;20465;-71
2021/12/12 11:08:52;;;;;;;281.53;48.80;;;9.40;99.90;;;;;;4953886;29;20055;-71
2021/12/12 11:11:22;;;;;;;251.95;47.28;;;9.50;99.90;;;;;;4941078;29;20479;-71
2021/12/12 11:13:59;;;;;;;246.65;49.58;;;9.50;99.90;;;;;;4958541;28;20087;-71
2021/12/12 11:16:33;;;;;;;302.40;50.70;;;9.50;99.90;;;;;;4957575;29;20054;-72
2021/12/12 11:19:22;;;;;;;168.45;41.75;;;9.50;99.90;;;;;;4957756;28;20051;-71
2021/12/12 11:21:51;;;;;;;243.18;48.30;;;9.60;99.90;;;;;;4957193;29;20062;-71
2021/12/12 11:24:29;;;;;;;224.88;46.55;;;9.60;99.90;;;;;;4958220;29;20047;-71
2021/12/12 11:27:10;;;;;;;192.48;44.58;;;9.60;99.90;;;;;;4957282;29;20554;-71
2021/12/12 11:29:47;;;;;;;272.05;49.10;;;9.50;99.90;;;;;;4958534;28;20109;-71
2021/12/12 11:32:26;;;;;;;214.00;45.40;;;9.60;99.90;;;;;;4941443;29;20595;-71
2021/12/12 11:34:54;;;;;;;148.23;40.92;;;9.60;99.90;;;;;;4955141;29;20059;-71
2021/12/12 11:37:37;;;;;;;196.32;45.55;;;9.60;99.90;;;;;;4956487;29;20101;-71
2021/12/12 11:40:05;;;;;;;222.73;43.90;;;9.60;99.90;;;;;;4941207;29;20087;-71
2021/12/12 11:42:45;;;;;;;174.57;41.67;;;9.70;99.90;;;;;;4940389;29;20051;-71
2021/12/12 11:45:16;;;;;;;253.35;45.53;;;9.70;99.90;;;;;;4956636;29;20039;-71
2021/12/12 11:48:12;;;;;;;186.77;41.35;;;9.80;99.90;;;;;;4956691;29;20130;-71
2021/12/12 11:51:03;;;;;;;240.10;45.58;;;9.80;99.90;;;;;;4937591;29;20098;-71
2021/12/12 11:53:47;;;;;;;168.85;41.10;;;9.90;99.90;;;;;;4937640;29;20054;-71
2021/12/12 11:56:18;;;;;;;172.40;40.67;;;10.00;99.90;;;;;;4937483;29;20079;-71
2021/12/12 11:59:10;;;;;;;185.18;42.28;;;10.00;99.90;;;;;;4937768;29;20091;-71
2021/12/12 12:01:47;;;;;;;158.45;39.92;;;10.00;99.90;;;;;;4937274;29;20047;-71
2021/12/12 12:04:35;;;;;;;213.00;42.35;;;9.90;99.90;;;;;;4922836;29;20479;-71
2021/12/12 12:07:23;;;;;;;205.43;41.53;;;9.90;99.90;;;;;;4955784;29;20051;-71
2021/12/12 12:10:09;;;;;;;103.82;31.58;;;10.00;99.90;;;;;;4955560;29;20055;-71
2021/12/12 12:12:59;;;;;;;211.63;42.15;;;10.00;99.90;;;;;;4953240;29;20055;-71
2021/12/12 12:15:49;;;;;;;136.20;36.25;;;10.10;99.90;;;;;;4948997;29;20241;-70
2021/12/12 12:18:42;;;;;;;212.85;39.13;;;10.00;99.90;;;;;;4953926;28;20399;-71
2021/12/12 12:21:29;;;;;;;107.38;33.13;;;10.10;99.90;;;;;;4955430;28;20054;-72
2021/12/12 12:26:51;;;;;;;192.95;43.38;;;10.20;99.90;;;;;;4936701;29;20147;-72
2021/12/12 12:29:42;;;;;;;192.18;42.05;;;10.20;99.90;;;;;;4922359;29;20165;-72
2021/12/12 12:32:32;;;;;;;193.68;43.58;;;10.20;99.90;;;;;;4921400;29;20468;-72
2021/12/12 12:35:36;;;;;;;214.75;41.25;;;10.20;99.90;;;;;;4954972;28;20512;-72
2021/12/12 12:38:26;;;;;;;152.60;39.17;;;10.20;99.90;;;;;;4938403;29;20095;-74
2021/12/12 12:41:29;;;;;;;186.55;40.45;;;10.20;99.90;;;;;;4942824;28;20400;-74
2021/12/12 12:44:33;;;;;;;204.38;41.80;;;10.20;99.90;;;;;;4920676;29;20407;-74
2021/12/12 12:47:40;;;;;;;169.25;42.70;;;10.30;99.90;;;;;;4955537;29;20063;-72
2021/12/12 12:50:35;;;;;;;171.90;42.65;;;10.30;99.90;;;;;;4939237;29;20102;-71
2021/12/12 12:53:29;;;;;;;240.18;45.40;;;10.30;99.90;;;;;;4955287;29;20641;-71
2021/12/12 12:56:34;;;;;;;112.55;32.00;;;10.30;99.90;;;;;;4955201;29;20044;-74
2021/12/12 12:59:24;;;;;;;191.45;41.42;;;10.40;99.90;;;;;;4940829;29;20131;-72
2021/12/12 13:02:05;;;;;;;196.40;40.60;;;10.40;99.90;;;;;;4937586;29;20138;-71
2021/12/12 13:04:43;;;;;;;173.93;39.45;;;10.50;99.90;;;;;;4920439;29;20043;-72
2021/12/12 13:07:33;;;;;;;184.98;39.70;;;10.40;99.90;;;;;;4936225;29;20458;-72
2021/12/12 13:10:03;;;;;;;167.07;37.17;;;10.40;99.90;;;;;;4939022;29;20529;-72
2021/12/12 13:13:11;;;;;;;211.18;42.50;;;10.40;99.90;;;;;;4954760;29;20050;-72
2021/12/12 13:15:44;;;;;;;169.27;39.17;;;10.50;99.90;;;;;;4954628;29;20059;-72
2021/12/12 13:18:28;;;;;;;171.45;38.58;;;10.40;99.90;;;;;;4954904;29;20483;-71
2021/12/12 13:21:16;;;;;;;152.55;35.95;;;10.40;99.90;;;;;;4955281;29;20182;-71
2021/12/12 13:24:41;;;;;;;255.95;43.80;;;10.50;99.90;;;;;;4954928;29;20055;-73
2021/12/12 13:27:50;;;;;;;207.27;40.25;;;10.50;99.90;;;;;;4939356;28;20051;-72
2021/12/12 13:30:28;;;;;;;137.25;35.20;;;10.50;99.90;;;;;;4937976;29;20047;-73
2021/12/12 13:33:00;;;;;;;206.50;40.38;;;10.50;99.90;;;;;;4945560;29;20061;-75